Time;durP1;ratioP1;P1;durP2;ratioP2;P2;SDS_P1;SDS_P2;PMS_P1;PMS_P2;Temp;Humidity;BMP_temperature;BMP_pressure;BME280_temperature;BME280_humidity;BME280_pressure;Samples;Min_cycle;Max_cycle;Signal;HPM_P1;HPM_P2
2022/06/11 00:01:20;;;;;;;9.83;8.07;;;20.10;99.90;;;;;;5038934;28;20423;-79
2022/06/11 00:03:52;;;;;;;10.53;8.30;;;20.10;99.90;;;;;;5038804;28;20427;-79
2022/06/11 00:06:21;;;;;;;11.30;8.30;;;20.10;99.90;;;;;;5037315;28;20477;-79
2022/06/11 00:08:50;;;;;;;11.20;9.97;;;20.10;99.90;;;;;;5038810;28;20968;-80
2022/06/11 00:11:20;;;;;;;13.87;8.30;;;20.10;99.90;;;;;;5039716;28;20880;-81
2022/06/11 00:13:49;;;;;;;11.87;8.67;;;20.10;99.90;;;;;;5040855;28;20465;-79
2022/06/11 00:16:19;;;;;;;9.23;8.23;;;20.10;99.90;;;;;;5039154;28;20554;-79
2022/06/11 00:18:51;;;;;;;10.60;8.83;;;20.10;99.90;;;;;;5037749;28;21098;-79
2022/06/11 00:21:19;;;;;;;11.27;8.77;;;20.00;99.90;;;;;;5037928;28;20450;-79
2022/06/11 00:23:47;;;;;;;9.80;8.40;;;20.00;99.90;;;;;;5037785;28;20451;-79
2022/06/11 00:26:16;;;;;;;11.43;8.23;;;20.00;99.90;;;;;;5038792;28;20467;-78
2022/06/11 00:28:44;;;;;;;10.20;8.30;;;20.00;99.90;;;;;;5037842;28;20538;-79
2022/06/11 00:31:12;;;;;;;10.57;8.83;;;20.00;99.90;;;;;;5035658;28;20447;-79
2022/06/11 00:33:41;;;;;;;9.23;8.17;;;20.00;99.90;;;;;;5036461;28;20489;-79
2022/06/11 00:36:12;;;;;;;10.53;8.40;;;20.00;99.90;;;;;;5036594;28;20497;-81
2022/06/11 00:38:42;;;;;;;10.00;8.63;;;20.00;99.90;;;;;;5036776;28;20467;-80
2022/06/11 00:41:11;;;;;;;11.67;9.50;;;20.00;99.90;;;;;;5038071;28;20471;-79
2022/06/11 00:43:40;;;;;;;12.33;8.80;;;19.90;99.90;;;;;;5036686;28;20447;-80
2022/06/11 00:46:37;;;;;;;11.30;9.10;;;19.90;99.90;;;;;;5036462;28;20518;-80
2022/06/11 00:49:12;;;;;;;10.30;8.67;;;19.90;99.90;;;;;;5030838;28;20469;-80
2022/06/11 00:51:42;;;;;;;9.67;8.67;;;19.90;99.90;;;;;;5036615;28;20533;-80
2022/06/11 00:54:16;;;;;;;10.23;9.27;;;19.90;99.90;;;;;;5037602;28;20426;-79
2022/06/11 00:56:48;;;;;;;12.70;11.10;;;19.90;99.90;;;;;;5037068;28;20502;-77
2022/06/11 00:59:26;;;;;;;11.90;9.20;;;19.90;99.90;;;;;;5033875;28;20469;-78
2022/06/11 01:01:55;;;;;;;9.70;8.80;;;19.80;99.90;;;;;;5037420;28;20928;-78
2022/06/11 01:04:44;;;;;;;10.50;8.90;;;19.80;99.90;;;;;;5035435;28;20447;-80
2022/06/11 01:07:29;;;;;;;14.40;8.93;;;19.80;99.90;;;;;;5036475;28;20447;-79
2022/06/11 01:10:10;;;;;;;10.70;8.93;;;19.80;99.90;;;;;;5035614;28;20453;-80
2022/06/11 01:12:50;;;;;;;11.20;9.80;;;19.80;99.90;;;;;;5034707;28;20447;-78
2022/06/11 01:15:22;;;;;;;11.87;9.33;;;19.80;99.90;;;;;;5037113;28;20818;-80
2022/06/11 01:17:58;;;;;;;11.30;10.00;;;19.80;99.90;;;;;;5035835;28;20542;-79
2022/06/11 01:20:41;;;;;;;10.87;9.77;;;19.80;99.90;;;;;;5035659;28;20530;-78
2022/06/11 01:24:03;;;;;;;11.83;9.57;;;19.70;99.90;;;;;;5034766;28;20477;-78
2022/06/11 01:26:57;;;;;;;10.97;9.20;;;19.70;99.90;;;;;;5035485;28;20529;-79
2022/06/11 01:29:48;;;;;;;14.50;9.97;;;19.70;99.90;;;;;;5036456;28;20455;-77
2022/06/11 01:32:22;;;;;;;11.50;9.57;;;19.70;99.90;;;;;;5034007;28;20455;-79
2022/06/11 01:35:07;;;;;;;13.07;10.90;;;19.70;99.90;;;;;;5034543;28;20470;-77
2022/06/11 01:37:41;;;;;;;11.20;10.03;;;19.60;99.90;;;;;;5035304;28;20893;-78
2022/06/11 01:40:19;;;;;;;11.60;10.60;;;19.60;99.90;;;;;;5035420;28;20549;-80
2022/06/11 01:42:52;;;;;;;12.03;10.40;;;19.60;99.90;;;;;;5035554;28;20427;-80
2022/06/11 01:45:26;;;;;;;12.17;10.87;;;19.60;99.90;;;;;;5035875;28;20550;-81
2022/06/11 01:47:55;;;;;;;13.20;12.00;;;19.50;99.90;;;;;;5034248;28;20455;-80
2022/06/11 01:50:27;;;;;;;12.33;11.13;;;19.50;99.90;;;;;;5034229;28;20506;-78
2022/06/11 01:53:15;;;;;;;11.57;10.50;;;19.50;99.90;;;;;;5035421;28;20947;-80
2022/06/11 01:56:00;;;;;;;15.43;10.90;;;19.50;99.90;;;;;;5033379;28;20471;-77
2022/06/11 01:58:47;;;;;;;14.50;10.77;;;19.50;99.90;;;;;;5035044;28;20455;-80
2022/06/11 02:01:23;;;;;;;15.77;11.37;;;19.50;99.90;;;;;;5034357;28;20455;-78
2022/06/11 02:04:01;;;;;;;12.07;10.87;;;19.40;99.90;;;;;;5033440;28;20811;-78
2022/06/11 02:06:38;;;;;;;14.27;12.57;;;19.40;99.90;;;;;;5035218;28;20462;-79
2022/06/11 02:09:26;;;;;;;15.83;14.33;;;19.40;99.90;;;;;;5035844;28;20423;-79
2022/06/11 02:12:00;;;;;;;14.80;13.37;;;19.30;99.90;;;;;;5041907;28;20419;-79
2022/06/11 02:14:37;;;;;;;15.60;14.10;;;19.30;99.90;;;;;;5041599;28;20873;-79
2022/06/11 02:17:11;;;;;;;14.57;13.20;;;19.30;99.90;;;;;;5040040;28;20847;-79
2022/06/11 02:19:45;;;;;;;16.30;14.90;;;19.30;99.90;;;;;;5040390;28;20875;-78
2022/06/11 02:22:19;;;;;;;16.17;14.70;;;19.30;99.90;;;;;;5040890;28;20467;-78
2022/06/11 02:24:51;;;;;;;16.50;15.00;;;19.20;99.90;;;;;;5039850;28;20524;-78
2022/06/11 02:27:23;;;;;;;17.60;16.20;;;19.20;99.90;;;;;;5039712;28;20445;-79
2022/06/11 02:29:54;;;;;;;17.80;16.20;;;19.20;99.90;;;;;;5040917;28;20518;-78
2022/06/11 02:32:27;;;;;;;15.53;14.07;;;19.10;99.90;;;;;;5039935;28;20439;-80
2022/06/11 02:34:58;;;;;;;25.50;17.50;;;19.10;99.90;;;;;;5039446;28;20474;-78
2022/06/11 02:37:30;;;;;;;18.30;15.73;;;19.10;99.90;;;;;;5041184;28;20538;-78
2022/06/11 02:40:05;;;;;;;53.93;12.17;;;19.10;99.90;;;;;;5040928;28;20455;-78
2022/06/11 02:42:34;;;;;;;764.73;93.37;;;19.00;99.90;;;;;;5041933;28;20829;-78
2022/06/11 02:45:02;;;;;;;348.37;29.63;;;19.00;99.90;;;;;;5039621;28;20471;-78
2022/06/11 02:47:32;;;;;;;15.27;12.47;;;19.00;99.90;;;;;;5039455;28;21040;-80
2022/06/11 02:50:00;;;;;;;14.27;12.77;;;18.90;99.90;;;;;;5040129;28;20913;-78
2022/06/11 02:52:28;;;;;;;12.67;11.37;;;18.90;99.90;;;;;;5039890;28;20434;-77
2022/06/11 02:54:57;;;;;;;503.03;147.47;;;18.90;99.90;;;;;;5039566;28;20478;-79
2022/06/11 02:57:27;;;;;;;13.07;11.67;;;18.90;99.90;;;;;;5039892;28;20447;-78
2022/06/11 02:59:55;;;;;;;12.33;11.03;;;18.80;99.90;;;;;;5038954;28;21035;-78
2022/06/11 03:02:25;;;;;;;13.60;12.30;;;18.80;99.90;;;;;;5039861;28;20466;-79
2022/06/11 03:04:55;;;;;;;12.17;11.07;;;18.70;99.90;;;;;;5039656;28;20474;-79
2022/06/11 03:07:24;;;;;;;12.30;11.30;;;18.70;99.90;;;;;;5039168;28;20529;-78
2022/06/11 03:09:52;;;;;;;12.70;11.70;;;18.70;99.90;;;;;;5040539;28;20446;-78
2022/06/11 03:12:20;;;;;;;12.20;11.30;;;18.70;99.90;;;;;;5039537;28;20465;-77
2022/06/11 03:14:48;;;;;;;12.03;11.03;;;18.60;99.90;;;;;;5040508;28;20476;-78
2022/06/11 03:17:19;;;;;;;13.17;12.07;;;18.60;99.90;;;;;;5040688;28;20443;-78
2022/06/11 03:19:47;;;;;;;12.87;11.87;;;18.50;99.90;;;;;;5040790;28;20462;-79
2022/06/11 03:22:17;;;;;;;13.07;11.90;;;18.50;99.90;;;;;;5040138;28;20445;-79
2022/06/11 03:24:46;;;;;;;12.83;11.77;;;18.50;99.90;;;;;;5038581;28;20479;-80
2022/06/11 03:27:15;;;;;;;13.13;12.00;;;18.40;99.90;;;;;;5038542;28;20451;-80
2022/06/11 03:29:44;;;;;;;13.57;12.27;;;18.40;99.90;;;;;;5036590;28;20453;-78
2022/06/11 03:32:13;;;;;;;13.10;12.07;;;18.40;99.90;;;;;;5038338;28;20447;-80
2022/06/11 03:34:42;;;;;;;13.47;12.17;;;18.30;99.90;;;;;;5037824;28;20896;-80
2022/06/11 03:37:10;;;;;;;12.90;11.80;;;18.30;99.90;;;;;;5038195;28;20948;-78
2022/06/11 03:39:41;;;;;;;12.57;11.30;;;18.30;99.90;;;;;;5038134;28;20834;-79
2022/06/11 03:42:09;;;;;;;14.03;12.93;;;18.30;99.90;;;;;;5036431;28;20435;-78
2022/06/11 03:44:38;;;;;;;13.50;12.40;;;18.20;99.90;;;;;;5036549;28;20462;-79
2022/06/11 03:47:06;;;;;;;12.77;11.60;;;18.30;99.90;;;;;;5036292;28;20447;-79
2022/06/11 03:49:35;;;;;;;15.20;13.70;;;18.20;99.90;;;;;;5036207;28;20459;-77
2022/06/11 03:52:05;;;;;;;14.20;12.97;;;18.20;99.90;;;;;;5035954;28;20497;-79
2022/06/11 03:54:35;;;;;;;13.77;12.53;;;18.20;99.90;;;;;;5037610;28;20436;-78
2022/06/11 03:57:06;;;;;;;16.90;15.20;;;18.20;99.90;;;;;;5037094;28;20485;-80
2022/06/11 03:59:34;;;;;;;15.90;14.30;;;18.10;99.90;;;;;;5038177;28;20467;-79
2022/06/11 04:02:03;;;;;;;15.27;13.67;;;18.10;99.90;;;;;;5036050;28;20471;-79
2022/06/11 04:04:31;;;;;;;14.63;13.27;;;18.10;99.90;;;;;;5039178;28;20447;-78
2022/06/11 04:07:02;;;;;;;14.83;13.63;;;18.10;99.90;;;;;;5037808;28;20477;-81
2022/06/11 04:09:33;;;;;;;15.63;14.37;;;18.10;99.90;;;;;;5037310;28;20883;-80
2022/06/11 04:12:04;;;;;;;15.10;13.90;;;18.10;99.90;;;;;;5036388;28;20442;-80
2022/06/11 04:14:33;;;;;;;15.63;14.30;;;18.10;99.90;;;;;;5037413;28;20428;-78
2022/06/11 04:17:07;;;;;;;14.13;12.80;;;18.10;99.90;;;;;;5035526;28;20447;-79
2022/06/11 04:19:39;;;;;;;14.07;12.97;;;18.10;99.90;;;;;;5037966;28;20955;-80
2022/06/11 04:22:09;;;;;;;16.17;14.67;;;18.20;99.90;;;;;;5037753;28;20435;-78
2022/06/11 04:24:37;;;;;;;16.20;14.60;;;18.20;99.90;;;;;;5036344;28;20470;-80
2022/06/11 04:27:10;;;;;;;15.87;14.10;;;18.30;99.90;;;;;;5037722;28;20865;-80
2022/06/11 04:29:43;;;;;;;16.03;14.40;;;18.30;99.90;;;;;;5037260;28;20442;-80
2022/06/11 04:32:15;;;;;;;14.90;13.70;;;18.30;99.90;;;;;;5035238;28;20765;-79
2022/06/11 04:34:45;;;;;;;16.07;14.50;;;18.30;99.90;;;;;;5034309;28;21190;-80
2022/06/11 04:37:16;;;;;;;17.57;15.67;;;18.40;99.90;;;;;;5036898;28;20810;-79
2022/06/11 04:39:49;;;;;;;14.57;13.20;;;18.40;99.90;;;;;;5036253;28;20477;-79
2022/06/11 04:42:20;;;;;;;15.87;14.47;;;18.50;99.90;;;;;;5037606;28;20424;-79
2022/06/11 04:44:48;;;;;;;14.87;13.57;;;18.40;99.90;;;;;;5035073;28;20508;-79
2022/06/11 04:47:21;;;;;;;15.33;13.83;;;18.50;99.90;;;;;;5035432;28;20443;-77
2022/06/11 04:49:51;;;;;;;14.57;13.17;;;18.50;99.90;;;;;;5035483;28;20462;-79
2022/06/11 04:52:19;;;;;;;16.33;14.80;;;18.50;99.90;;;;;;5037614;28;20489;-79
2022/06/11 04:54:48;;;;;;;15.67;14.43;;;18.50;99.90;;;;;;5037143;28;21038;-80
2022/06/11 04:57:17;;;;;;;15.50;14.13;;;18.60;99.90;;;;;;5036696;28;20530;-79
2022/06/11 04:59:47;;;;;;;15.77;14.20;;;18.60;99.90;;;;;;5036230;28;20516;-79
2022/06/11 05:02:16;;;;;;;15.77;14.37;;;18.60;99.90;;;;;;5035626;28;20462;-79
2022/06/11 05:04:44;;;;;;;16.10;14.53;;;18.70;99.90;;;;;;5034741;28;20965;-79
2022/06/11 05:07:13;;;;;;;18.70;15.40;;;18.70;99.90;;;;;;5034950;28;20451;-80
2022/06/11 05:09:41;;;;;;;15.20;13.70;;;18.70;99.90;;;;;;5035257;28;20454;-80
2022/06/11 05:12:11;;;;;;;16.23;14.17;;;18.80;99.90;;;;;;5035076;28;20944;-77
2022/06/11 05:14:40;;;;;;;16.13;14.53;;;18.80;99.90;;;;;;5035544;28;20463;-79
2022/06/11 05:17:10;;;;;;;14.37;13.07;;;18.80;99.90;;;;;;5034415;28;20486;-77
2022/06/11 05:19:38;;;;;;;15.57;14.13;;;18.80;99.90;;;;;;5035787;28;20530;-76
2022/06/11 05:22:07;;;;;;;16.23;14.77;;;18.90;99.90;;;;;;5034194;28;20571;-81
2022/06/11 05:24:35;;;;;;;16.40;14.90;;;18.90;99.90;;;;;;5034791;28;20455;-79
2022/06/11 05:27:07;;;;;;;16.60;14.63;;;18.90;99.90;;;;;;5037502;28;20443;-78
2022/06/11 05:29:40;;;;;;;15.20;13.60;;;18.90;99.90;;;;;;5037481;28;20443;-80
2022/06/11 05:32:10;;;;;;;14.57;13.17;;;19.00;99.90;;;;;;5034944;28;20439;-79
2022/06/11 05:34:38;;;;;;;15.70;12.60;;;19.00;99.90;;;;;;5034365;28;20471;-78
2022/06/11 05:37:07;;;;;;;14.20;12.70;;;19.00;99.90;;;;;;5034446;28;20455;-78
2022/06/11 05:39:40;;;;;;;12.43;11.20;;;19.10;99.90;;;;;;5036151;28;20455;-79
2022/06/11 05:42:09;;;;;;;12.03;10.83;;;19.10;99.90;;;;;;5034824;28;20508;-81
2022/06/11 05:44:37;;;;;;;11.90;10.80;;;19.10;99.90;;;;;;5036133;28;20470;-79
2022/06/11 05:47:07;;;;;;;12.23;10.90;;;19.10;99.90;;;;;;5036927;28;20863;-80
2022/06/11 05:49:41;;;;;;;13.90;12.20;;;19.10;99.90;;;;;;5035634;28;20457;-80
2022/06/11 05:52:14;;;;;;;16.97;12.10;;;19.20;99.90;;;;;;5035127;28;20489;-79
2022/06/11 05:54:43;;;;;;;13.17;11.50;;;19.20;99.90;;;;;;5034522;28;20994;-80
2022/06/11 05:57:15;;;;;;;14.50;11.00;;;19.40;99.90;;;;;;5035228;28;20439;-78
2022/06/11 05:59:48;;;;;;;12.33;11.03;;;19.70;99.90;;;;;;5034525;28;20461;-78
2022/06/11 06:02:19;;;;;;;11.13;10.13;;;19.90;99.90;;;;;;5035850;28;20461;-80
2022/06/11 06:04:49;;;;;;;11.60;10.50;;;20.20;99.90;;;;;;5036689;28;20455;-79
2022/06/11 06:07:17;;;;;;;11.47;10.30;;;20.40;99.90;;;;;;5034413;28;20498;-79
2022/06/11 06:09:47;;;;;;;11.47;10.40;;;20.60;99.90;;;;;;5034469;28;20450;-78
2022/06/11 06:12:17;;;;;;;10.40;9.43;;;20.70;99.90;;;;;;5036410;28;20438;-79
2022/06/11 06:14:46;;;;;;;10.80;9.70;;;20.80;99.90;;;;;;5034616;28;20477;-79
2022/06/11 06:17:14;;;;;;;9.73;8.83;;;21.00;99.90;;;;;;5036027;28;20438;-80
2022/06/11 06:20:02;;;;;;;8.30;7.57;;;21.10;99.90;;;;;;5033785;28;20454;-79
2022/06/11 06:22:30;;;;;;;9.07;8.13;;;21.40;99.90;;;;;;5034508;28;20584;-79
2022/06/11 06:24:58;;;;;;;8.40;7.30;;;21.60;99.90;;;;;;5034237;28;20562;-78
2022/06/11 06:27:27;;;;;;;6.13;5.47;;;21.70;99.90;;;;;;5035497;28;20463;-78
2022/06/11 06:29:55;;;;;;;5.73;5.13;;;21.80;99.90;;;;;;5035266;28;20456;-78
2022/06/11 06:32:24;;;;;;;5.73;4.03;;;21.80;99.90;;;;;;5035440;28;20462;-77
2022/06/11 06:34:52;;;;;;;9.53;5.13;;;21.80;99.90;;;;;;5034470;28;20510;-77
2022/06/11 06:37:22;;;;;;;4.67;4.17;;;21.90;99.90;;;;;;5034701;28;20538;-78
2022/06/11 06:39:51;;;;;;;4.90;3.80;;;22.10;99.90;;;;;;5035648;28;20439;-78
2022/06/11 06:42:19;;;;;;;4.90;3.93;;;22.30;99.90;;;;;;5033192;28;20495;-78
2022/06/11 06:44:48;;;;;;;4.97;3.80;;;22.40;99.90;;;;;;5033899;28;20561;-77
2022/06/11 06:47:16;;;;;;;5.93;3.40;;;22.40;99.90;;;;;;5033724;28;20809;-76
2022/06/11 06:49:45;;;;;;;6.40;3.83;;;22.50;99.90;;;;;;5034324;28;20446;-80
2022/06/11 06:52:13;;;;;;;4.83;3.67;;;22.50;99.90;;;;;;5033970;28;20465;-79
2022/06/11 06:54:43;;;;;;;4.53;3.80;;;22.60;99.90;;;;;;5034650;28;20458;-78
2022/06/11 06:57:11;;;;;;;4.90;3.73;;;22.70;99.90;;;;;;5035546;28;20447;-78
2022/06/11 06:59:39;;;;;;;6.13;4.40;;;23.00;99.90;;;;;;5037416;28;20451;-79
2022/06/11 07:02:09;;;;;;;4.83;3.57;;;23.20;99.90;;;;;;5039042;28;20478;-78
2022/06/11 07:04:37;;;;;;;4.57;4.17;;;23.30;99.90;;;;;;5037510;28;20478;-77
2022/06/11 07:07:06;;;;;;;4.80;4.30;;;23.40;99.90;;;;;;5037428;28;20454;-78
2022/06/11 07:09:35;;;;;;;5.33;4.67;;;23.60;99.90;;;;;;5037138;28;20454;-78
2022/06/11 07:12:05;;;;;;;4.80;4.40;;;23.70;99.90;;;;;;5036914;28;20447;-78
2022/06/11 07:14:33;;;;;;;4.77;4.37;;;23.80;99.90;;;;;;5036391;28;20447;-78
2022/06/11 07:17:06;;;;;;;6.27;5.17;;;23.80;99.90;;;;;;5036723;28;20451;-78
2022/06/11 07:19:43;;;;;;;4.83;4.30;;;23.90;99.90;;;;;;5036824;28;20449;-79
2022/06/11 07:22:17;;;;;;;4.53;4.13;;;24.00;99.90;;;;;;5037862;28;20462;-79
2022/06/11 07:24:45;;;;;;;5.07;4.40;;;24.00;99.90;;;;;;5036463;28;20541;-80
2022/06/11 07:27:18;;;;;;;4.67;4.27;;;24.00;99.90;;;;;;5036985;28;20819;-80
2022/06/11 07:29:51;;;;;;;5.77;5.00;;;24.00;99.80;;;;;;5038097;28;20443;-81
2022/06/11 07:32:29;;;;;;;4.70;3.83;;;24.00;99.40;;;;;;5037943;28;20447;-81
2022/06/11 07:35:00;;;;;;;4.30;4.00;;;24.00;99.30;;;;;;5038519;28;20466;-80
2022/06/11 07:37:28;;;;;;;5.63;4.57;;;24.10;99.00;;;;;;5038625;28;20493;-81
2022/06/11 07:39:56;;;;;;;4.70;4.10;;;24.20;98.90;;;;;;5039362;28;20447;-82
2022/06/11 07:42:29;;;;;;;5.30;4.90;;;24.30;98.70;;;;;;5038241;28;21011;-80
2022/06/11 07:44:57;;;;;;;6.43;4.47;;;24.30;98.30;;;;;;5040372;28;20459;-78
2022/06/11 07:50:11;;;;;;;4.97;3.20;;;24.40;97.90;;;;;;5037783;28;20465;-79
2022/06/11 07:52:40;;;;;;;4.40;4.00;;;24.40;97.90;;;;;;5038503;28;20542;-80
2022/06/11 07:55:10;;;;;;;6.73;3.93;;;24.50;97.90;;;;;;5038756;28;20471;-79
2022/06/11 07:57:40;;;;;;;5.87;4.10;;;24.60;97.80;;;;;;5038356;28;20497;-79
2022/06/11 08:00:12;;;;;;;4.37;3.80;;;24.70;97.60;;;;;;5039046;28;20458;-81
2022/06/11 08:02:41;;;;;;;5.40;3.90;;;24.60;97.00;;;;;;5039641;28;20518;-83
2022/06/11 08:05:10;;;;;;;4.07;3.70;;;24.40;96.70;;;;;;5036378;28;20463;-79
2022/06/11 08:07:38;;;;;;;4.23;3.90;;;24.40;96.70;;;;;;5038660;28;20438;-79
2022/06/11 08:10:08;;;;;;;4.90;4.00;;;24.40;96.70;;;;;;5038192;28;20486;-80
2022/06/11 08:12:36;;;;;;;5.10;4.60;;;24.40;96.50;;;;;;5037709;28;20435;-78
2022/06/11 08:15:07;;;;;;;5.53;4.73;;;24.50;96.40;;;;;;5036343;28;20475;-81
2022/06/11 08:17:36;;;;;;;4.60;4.10;;;24.50;96.40;;;;;;5036777;28;20455;-80
2022/06/11 08:20:06;;;;;;;4.40;4.00;;;24.60;96.20;;;;;;5037221;28;20438;-80
2022/06/11 08:22:35;;;;;;;5.80;4.70;;;24.60;96.20;;;;;;5038676;28;20459;-81
2022/06/11 08:25:03;;;;;;;4.93;4.53;;;24.70;96.10;;;;;;5041712;28;21030;-80
2022/06/11 08:27:31;;;;;;;5.47;4.10;;;24.70;95.90;;;;;;5043451;28;20459;-79
2022/06/11 08:30:00;;;;;;;9.60;4.23;;;24.70;95.80;;;;;;5042977;28;20501;-80
2022/06/11 08:32:30;;;;;;;4.20;3.80;;;24.70;95.80;;;;;;5044237;28;20447;-78
2022/06/11 08:34:58;;;;;;;6.97;4.80;;;24.80;95.70;;;;;;5044337;28;20477;-78
2022/06/11 08:37:26;;;;;;;5.23;4.20;;;24.80;95.50;;;;;;5040866;28;20455;-81
2022/06/11 08:39:54;;;;;;;7.40;5.03;;;24.80;95.40;;;;;;5041688;28;20504;-78
2022/06/11 08:42:35;;;;;;;7.50;4.77;;;24.90;95.40;;;;;;5045842;28;20466;-80
2022/06/11 08:45:07;;;;;;;6.07;4.47;;;24.90;95.30;;;;;;5045224;28;20470;-80
2022/06/11 08:47:49;;;;;;;8.03;4.27;;;25.00;95.40;;;;;;5041870;28;20447;-79
2022/06/11 08:50:21;;;;;;;9.00;4.30;;;25.10;95.50;;;;;;5040192;28;20455;-80
2022/06/11 08:52:56;;;;;;;6.07;3.70;;;25.10;95.10;;;;;;5042190;28;20447;-79
2022/06/11 08:55:32;;;;;;;7.10;4.40;;;25.10;95.10;;;;;;5046232;28;20558;-79
2022/06/11 08:58:09;;;;;;;6.93;4.37;;;25.20;94.90;;;;;;5048030;28;20806;-79
2022/06/11 09:00:45;;;;;;;5.80;4.00;;;25.20;94.80;;;;;;5046873;28;20449;-81
2022/06/11 09:03:28;;;;;;;7.90;4.23;;;25.10;94.60;;;;;;5046697;28;20467;-81
2022/06/11 09:06:44;;;;;;;8.13;4.53;;;25.20;94.70;;;;;;5046128;28;20877;-81
2022/06/11 09:09:22;;;;;;;7.93;4.20;;;25.20;94.30;;;;;;5037387;28;20538;-80
2022/06/11 09:12:07;;;;;;;6.20;3.50;;;25.10;94.10;;;;;;5037822;28;20553;-79
2022/06/11 09:15:07;;;;;;;5.93;3.60;;;25.00;94.10;;;;;;5042589;28;20439;-78
2022/06/11 09:18:03;;;;;;;6.67;4.10;;;25.00;94.10;;;;;;5044722;28;20466;-80
2022/06/11 09:20:40;;;;;;;8.90;4.13;;;25.00;94.30;;;;;;5044467;28;20518;-79
2022/06/11 09:23:39;;;;;;;6.30;4.23;;;25.10;94.40;;;;;;5042438;28;20459;-79
2022/06/11 09:26:20;;;;;;;8.60;4.07;;;25.30;94.40;;;;;;5043890;28;20471;-79
2022/06/11 09:28:58;;;;;;;6.90;4.10;;;25.30;94.30;;;;;;5047036;28;20427;-80
2022/06/11 09:31:37;;;;;;;7.17;3.27;;;25.40;94.00;;;;;;5046726;28;20529;-81
2022/06/11 09:34:10;;;;;;;8.13;3.63;;;25.40;93.80;;;;;;5049812;28;20446;-80
2022/06/11 09:36:42;;;;;;;7.70;4.03;;;25.50;93.60;;;;;;5046567;28;20474;-81
2022/06/11 09:39:27;;;;;;;6.70;3.20;;;25.50;93.50;;;;;;5045447;28;20447;-80
2022/06/11 09:42:06;;;;;;;7.30;3.30;;;25.60;93.40;;;;;;5045084;28;20439;-79
2022/06/11 09:44:42;;;;;;;6.20;3.30;;;25.50;93.00;;;;;;5045565;28;20461;-78
2022/06/11 09:47:20;;;;;;;7.67;3.33;;;25.40;92.70;;;;;;5045819;28;20428;-80
2022/06/11 09:50:14;;;;;;;6.50;3.30;;;25.40;92.70;;;;;;5045549;28;20458;-80
2022/06/11 09:52:53;;;;;;;9.50;3.57;;;25.40;92.80;;;;;;5041067;28;20451;-78
2022/06/11 09:55:27;;;;;;;7.17;2.90;;;25.40;92.60;;;;;;5041235;28;20470;-80
2022/06/11 09:58:04;;;;;;;7.10;3.10;;;25.50;92.30;;;;;;5047317;28;20423;-79
2022/06/11 10:00:58;;;;;;;7.07;3.50;;;25.40;92.20;;;;;;5049171;28;20478;-79
2022/06/11 10:03:35;;;;;;;8.70;4.07;;;25.40;92.20;;;;;;5042916;28;20469;-79
2022/06/11 10:06:08;;;;;;;4.73;2.83;;;25.40;92.30;;;;;;5037710;28;20466;-79
2022/06/11 10:08:42;;;;;;;7.10;3.33;;;25.50;92.20;;;;;;5036065;28;20489;-81
2022/06/11 10:11:19;;;;;;;8.00;3.40;;;25.60;92.10;;;;;;5036368;28;20470;-81
2022/06/11 10:13:52;;;;;;;9.77;3.60;;;25.60;92.00;;;;;;5037154;28;20430;-78
2022/06/11 10:16:31;;;;;;;13.23;3.80;;;25.70;91.90;;;;;;5034947;28;20473;-79
2022/06/11 10:19:12;;;;;;;4.13;2.60;;;25.80;91.90;;;;;;5036106;28;20431;-78
2022/06/11 10:21:49;;;;;;;12.10;3.87;;;25.90;91.80;;;;;;5035618;28;20423;-80
2022/06/11 10:24:21;;;;;;;10.70;3.27;;;25.90;91.80;;;;;;5036704;28;20455;-78
2022/06/11 10:26:57;;;;;;;15.90;3.63;;;25.90;91.60;;;;;;5035674;28;20910;-79
2022/06/11 10:29:30;;;;;;;5.33;2.80;;;25.90;91.60;;;;;;5036173;28;20423;-79
2022/06/11 10:32:07;;;;;;;12.00;4.07;;;26.00;91.40;;;;;;5039056;28;20419;-80
2022/06/11 10:34:38;;;;;;;11.53;3.80;;;25.90;91.30;;;;;;5040167;28;20425;-78
2022/06/11 10:37:13;;;;;;;4.57;2.60;;;25.90;91.20;;;;;;5040117;28;20446;-80
2022/06/11 10:39:47;;;;;;;7.33;2.90;;;26.00;91.20;;;;;;5040780;28;20500;-80
2022/06/11 10:42:21;;;;;;;4.90;2.50;;;26.00;90.80;;;;;;5040536;28;20929;-80
2022/06/11 10:44:51;;;;;;;7.80;2.83;;;25.90;90.60;;;;;;5039894;28;20565;-78
2022/06/11 10:47:24;;;;;;;4.80;2.70;;;25.80;90.40;;;;;;5038669;28;20542;-79
2022/06/11 10:50:01;;;;;;;5.77;2.90;;;25.80;90.60;;;;;;5041307;28;20454;-79
2022/06/11 10:52:38;;;;;;;6.43;2.73;;;25.80;90.60;;;;;;5042089;28;20831;-81
2022/06/11 10:55:17;;;;;;;5.40;2.90;;;25.90;90.40;;;;;;5043722;28;20463;-80
2022/06/11 10:57:51;;;;;;;8.50;3.50;;;25.90;90.10;;;;;;5039111;28;20430;-78
2022/06/11 11:00:22;;;;;;;7.30;3.60;;;26.00;90.10;;;;;;5037274;28;20446;-78
2022/06/11 11:02:54;;;;;;;6.60;3.47;;;26.00;90.30;;;;;;5037660;28;20809;-79
2022/06/11 11:05:23;;;;;;;7.03;2.87;;;26.10;90.30;;;;;;5037873;28;20467;-78
2022/06/11 11:07:57;;;;;;;6.20;2.90;;;26.20;90.40;;;;;;5038844;28;20459;-78
2022/06/11 11:10:44;;;;;;;8.77;3.90;;;26.30;90.60;;;;;;5038416;28;20473;-79
2022/06/11 11:13:22;;;;;;;11.10;3.30;;;26.40;90.20;;;;;;5038542;28;20889;-78
2022/06/11 11:15:59;;;;;;;7.87;3.17;;;26.50;90.00;;;;;;5036923;28;20470;-79
2022/06/11 11:18:35;;;;;;;7.60;2.40;;;26.40;89.90;;;;;;5037328;28;20928;-77
2022/06/11 11:21:04;;;;;;;7.80;2.87;;;26.40;90.00;;;;;;5038493;28;20427;-78
2022/06/11 11:23:38;;;;;;;7.07;3.00;;;26.30;89.80;;;;;;5038056;28;20481;-78
2022/06/11 11:26:17;;;;;;;6.70;3.10;;;26.20;89.70;;;;;;5037473;28;20990;-78
2022/06/11 11:28:55;;;;;;;9.97;3.50;;;26.20;89.60;;;;;;5038469;28;20435;-78
2022/06/11 11:31:26;;;;;;;10.23;2.80;;;26.10;89.60;;;;;;5037879;28;20753;-79
2022/06/11 11:34:03;;;;;;;6.50;3.10;;;25.90;89.60;;;;;;5036407;28;20443;-79
2022/06/11 11:36:34;;;;;;;5.60;2.63;;;25.80;89.50;;;;;;5038013;28;20471;-76
2022/06/11 11:39:18;;;;;;;4.60;2.80;;;25.80;89.50;;;;;;5035863;28;20959;-78
2022/06/11 11:42:00;;;;;;;7.37;2.60;;;25.80;89.50;;;;;;5036685;28;20446;-79
2022/06/11 11:44:34;;;;;;;4.60;2.80;;;25.90;89.60;;;;;;5036557;28;20882;-77
2022/06/11 11:47:06;;;;;;;4.47;2.60;;;26.00;89.20;;;;;;5036743;28;20439;-79
2022/06/11 11:49:35;;;;;;;5.63;2.90;;;26.00;88.50;;;;;;5036820;28;20463;-78
2022/06/11 11:52:06;;;;;;;6.27;2.80;;;26.10;88.60;;;;;;5036972;28;21034;-77
2022/06/11 11:54:36;;;;;;;6.70;3.30;;;26.10;88.80;;;;;;5036156;28;20439;-77
2022/06/11 11:57:13;;;;;;;6.70;2.70;;;26.10;88.80;;;;;;5036149;28;20948;-78
2022/06/11 11:59:48;;;;;;;5.47;2.20;;;26.00;88.60;;;;;;5035678;28;20505;-78
2022/06/11 12:02:20;;;;;;;6.63;2.50;;;26.10;89.10;;;;;;5038081;28;20496;-78
2022/06/11 12:04:56;;;;;;;6.67;2.83;;;26.10;89.10;;;;;;5038113;28;20483;-79
2022/06/11 12:07:32;;;;;;;9.67;2.90;;;26.00;88.90;;;;;;5037282;28;20423;-78
2022/06/11 12:10:19;;;;;;;9.83;3.10;;;26.10;88.50;;;;;;5037795;28;20485;-79
2022/06/11 12:12:52;;;;;;;6.90;3.60;;;26.20;88.90;;;;;;5035448;28;20435;-78
2022/06/11 12:15:24;;;;;;;6.73;3.70;;;26.30;88.60;;;;;;5035946;28;20482;-77
2022/06/11 12:17:54;;;;;;;9.90;3.60;;;26.40;88.50;;;;;;5036267;28;20955;-79
2022/06/11 12:20:34;;;;;;;5.77;2.90;;;26.50;88.30;;;;;;5036635;28;20509;-76
2022/06/11 12:23:12;;;;;;;6.00;2.53;;;26.50;88.00;;;;;;5035795;28;20449;-77
2022/06/11 12:25:47;;;;;;;8.10;3.33;;;26.50;87.70;;;;;;5035896;28;20995;-78
2022/06/11 12:28:22;;;;;;;10.97;2.93;;;26.50;87.50;;;;;;5038185;28;20426;-79
2022/06/11 12:30:51;;;;;;;6.87;3.00;;;26.40;87.20;;;;;;5036601;28;20485;-79
2022/06/11 12:33:21;;;;;;;9.10;2.83;;;26.30;87.30;;;;;;5035680;28;20438;-78
2022/06/11 12:35:54;;;;;;;5.30;2.83;;;26.30;87.20;;;;;;5036888;28;20450;-78
2022/06/11 12:38:36;;;;;;;11.00;3.67;;;26.20;86.90;;;;;;5036898;28;20458;-78
2022/06/11 12:41:28;;;;;;;4.20;2.70;;;26.10;87.00;;;;;;5036317;28;20426;-78
2022/06/11 12:44:28;;;;;;;5.87;2.97;;;26.20;87.10;;;;;;5035528;28;20439;-81
2022/06/11 12:47:07;;;;;;;7.63;2.97;;;26.10;87.00;;;;;;5034257;28;20824;-77
2022/06/11 12:49:45;;;;;;;9.70;3.53;;;26.10;87.10;;;;;;5036129;28;20566;-78
2022/06/11 12:52:23;;;;;;;9.63;3.40;;;26.00;86.80;;;;;;5036624;28;20426;-79
2022/06/11 12:55:21;;;;;;;6.67;3.00;;;25.90;86.70;;;;;;5033703;28;20554;-78
2022/06/11 12:57:58;;;;;;;8.60;3.33;;;25.90;86.90;;;;;;5036562;28;20430;-78
2022/06/11 13:00:43;;;;;;;8.30;3.03;;;25.80;87.10;;;;;;5036960;28;20425;-78
2022/06/11 13:03:45;;;;;;;9.17;2.90;;;25.80;87.40;;;;;;5035929;28;20518;-78
2022/06/11 13:06:26;;;;;;;5.53;2.80;;;25.80;86.90;;;;;;5035577;28;20478;-78
2022/06/11 13:09:05;;;;;;;6.03;2.50;;;25.80;87.00;;;;;;5034540;28;20924;-78
2022/06/11 13:11:43;;;;;;;9.07;2.87;;;25.80;87.20;;;;;;5036484;28;20834;-78
2022/06/11 13:14:43;;;;;;;13.20;3.07;;;25.80;87.20;;;;;;5036142;28;20892;-78